Richardton, North Dakota
Current Conditions -  °F | °C
As of 6:15 PM on Sunday 21 Dec 2014 (Local Time) from KD57 Reporting Station
NA  
Wind Chill: 25°   Ceiling: NA
Heat Index: 30°   Visibility: 10mi
Dew Point: 27°   Wind: 5mph
Humidity: 86%   Direction: 80°E
Pressure: 29.39"   Gusts: NA
Location:  46.88°N, 102.32°W
Report Text: KD57 220115Z AUTO 08004KT 10SM M01/M03 A2939 RMK AO2 TSNO
Loading
Personal Weather Stations






























Interactive Weather Map New forecast layout! Learn more

10-Day Weather Forecast

Advertisements
Track Severe Weather on mobile